createdAt,value
2023-04-02T00:00:10.185Z,4.30
2023-04-02T00:01:10.180Z,4.30
2023-04-02T00:02:10.227Z,4.00
2023-04-02T00:03:10.267Z,4.10
2023-04-02T00:04:10.213Z,3.90
2023-04-02T00:05:10.163Z,4.20
2023-04-02T00:06:10.109Z,3.80
2023-04-02T00:07:10.106Z,4.10
2023-04-02T00:08:10.149Z,3.70
2023-04-02T00:09:10.137Z,4.10
2023-04-02T00:10:10.111Z,3.80
2023-04-02T00:11:10.100Z,4.50
2023-04-02T00:12:10.064Z,4.00
2023-04-02T00:13:10.070Z,4.00
2023-04-02T00:14:10.117Z,4.50
2023-04-02T00:15:10.083Z,3.90
2023-04-02T00:16:10.098Z,4.40
2023-04-02T00:17:10.748Z,4.00
2023-04-02T00:18:10.064Z,4.00
2023-04-02T00:19:10.033Z,4.10
2023-04-02T00:20:10.018Z,4.30
2023-04-02T00:21:10.016Z,3.80
2023-04-02T00:22:10.035Z,3.30
2023-04-02T00:23:10.047Z,2.70
2023-04-02T00:24:10.043Z,3.30
2023-04-02T00:25:09.999Z,3.60
2023-04-02T00:26:10.002Z,4.10
2023-04-02T00:27:09.998Z,3.50
2023-04-02T00:28:10.010Z,3.30
2023-04-02T00:29:10.002Z,3.30
2023-04-02T00:30:09.954Z,3.00
2023-04-02T00:31:09.959Z,2.40
2023-04-02T00:32:09.938Z,2.50
2023-04-02T00:33:09.979Z,2.50
2023-04-02T00:34:09.945Z,2.30
2023-04-02T00:35:09.938Z,2.20
2023-04-02T00:36:09.983Z,1.90
2023-04-02T00:37:09.888Z,1.70
2023-04-02T00:38:09.933Z,1.70
2023-04-02T00:39:09.904Z,1.70
2023-04-02T00:40:09.899Z,1.50
2023-04-02T00:41:09.891Z,1.60
2023-04-02T00:42:09.856Z,1.40
2023-04-02T00:43:09.857Z,1.40
2023-04-02T00:44:09.861Z,1.40
2023-04-02T00:45:10.902Z,1.30
2023-04-02T00:46:09.899Z,1.20
2023-04-02T00:47:09.848Z,1.30
2023-04-02T00:48:09.856Z,1.30
2023-04-02T00:49:09.925Z,1.10
2023-04-02T00:50:09.848Z,1.60
2023-04-02T00:51:09.807Z,1.40
2023-04-02T00:52:09.822Z,1.60
2023-04-02T00:53:09.792Z,1.90
2023-04-02T00:54:09.812Z,1.90
2023-04-02T00:55:09.802Z,1.80
2023-04-02T00:56:09.802Z,2.10
2023-04-02T00:57:09.804Z,2.10
2023-04-02T00:58:09.768Z,2.60
2023-04-02T00:59:09.761Z,2.60
2023-04-02T01:00:09.751Z,2.90
2023-04-02T01:01:09.749Z,3.00
2023-04-02T16:44:26.026Z,7.60
2023-04-02T16:45:00.212Z,2.30
2023-04-02T16:46:00.255Z,2.10
2023-04-02T16:47:00.152Z,2.50
2023-04-02T16:48:01.197Z,5.10
2023-04-02T16:49:00.127Z,6.70
2023-04-02T16:50:00.140Z,10.30
2023-04-02T16:51:00.095Z,8.50
2023-04-02T16:52:00.103Z,2.80
2023-04-02T16:53:00.103Z,2.70
2023-04-02T16:54:02.120Z,2.30
2023-04-02T16:55:01.061Z,2.20
2023-04-02T16:56:00.124Z,2.20
2023-04-02T16:57:00.106Z,2.50
2023-04-02T16:58:00.050Z,2.60
2023-04-02T16:59:00.048Z,2.40
2023-04-02T17:00:00.052Z,2.90
2023-04-02T17:01:00.036Z,2.80
2023-04-02T17:02:00.044Z,2.70
2023-04-02T17:03:00.052Z,3.60
2023-04-02T17:04:00.176Z,3.50
2023-04-02T17:05:00.006Z,3.40
2023-04-02T17:06:00.006Z,3.90
2023-04-02T17:06:59.999Z,3.70
2023-04-02T17:07:59.985Z,6.30
2023-04-02T17:08:59.997Z,8.10
2023-04-02T17:09:59.972Z,6.20
2023-04-02T17:10:59.969Z,5.70
2023-04-02T17:11:59.931Z,4.00
2023-04-02T17:12:59.956Z,3.40
2023-04-02T17:13:59.930Z,3.00
2023-04-02T17:15:00.019Z,3.40
2023-04-02T17:16:01.006Z,3.60
2023-04-02T17:16:59.926Z,2.90
2023-04-02T17:17:59.991Z,2.60
2023-04-02T17:18:59.925Z,2.50
2023-04-02T17:19:59.926Z,2.40
2023-04-02T17:20:59.911Z,2.10
2023-04-02T17:21:59.895Z,2.10
2023-04-02T17:22:59.915Z,2.20
2023-04-02T17:23:59.911Z,2.30
2023-04-02T17:24:59.956Z,2.10
2023-04-02T17:25:59.884Z,2.40
2023-04-02T17:26:59.887Z,2.30
2023-04-02T17:27:59.874Z,2.30
2023-04-02T17:29:00.850Z,2.40
2023-04-02T17:29:59.882Z,2.60
2023-04-02T17:30:59.847Z,2.20
2023-04-02T17:32:01.668Z,2.10
2023-04-02T17:33:00.906Z,2.30
2023-04-02T17:33:59.801Z,1.60
2023-04-02T17:34:59.822Z,1.80
2023-04-02T17:35:59.883Z,1.70
2023-04-02T17:36:59.817Z,2.00
2023-04-02T17:37:59.810Z,1.90
2023-04-02T17:38:59.782Z,1.90
2023-04-02T17:39:59.786Z,1.80
2023-04-02T17:40:59.781Z,1.90
2023-04-02T17:41:59.756Z,1.80
2023-04-02T17:42:59.758Z,2.10
2023-04-02T17:43:59.744Z,1.80
2023-04-02T17:44:59.742Z,1.80
2023-04-02T17:45:59.798Z,1.50
2023-04-02T17:46:59.751Z,1.50
2023-04-02T17:47:59.818Z,1.70
2023-04-02T17:49:01.417Z,1.60
2023-04-02T17:49:59.776Z,2.10
2023-04-02T17:50:59.740Z,2.60
2023-04-02T17:51:59.704Z,2.50
2023-04-02T17:53:00.670Z,5.10
2023-04-02T17:53:59.682Z,3.60
2023-04-02T17:54:59.680Z,3.40
2023-04-02T17:55:59.667Z,1.90
2023-04-02T17:56:59.672Z,1.90
2023-04-02T17:58:00.712Z,2.00
2023-04-02T17:58:59.666Z,2.10
2023-04-02T17:59:59.647Z,3.40
2023-04-02T18:00:59.662Z,1.90
2023-04-02T18:01:59.648Z,1.70
2023-04-02T18:02:59.827Z,1.90
2023-04-02T18:03:59.689Z,1.60
2023-04-02T18:04:59.604Z,1.80
2023-04-02T18:05:59.597Z,4.20
2023-04-02T18:07:00.604Z,2.50
2023-04-02T18:07:59.600Z,2.20
2023-04-02T18:08:59.620Z,2.50
2023-04-02T18:09:59.704Z,2.10
2023-04-02T18:10:59.546Z,3.00
2023-04-02T18:12:00.523Z,2.10
2023-04-02T18:12:59.545Z,2.10
2023-04-02T18:13:59.528Z,2.00
2023-04-02T18:14:59.570Z,1.90
2023-04-02T18:15:59.514Z,1.80
2023-04-02T18:16:59.628Z,1.90
2023-04-02T18:18:00.282Z,1.90
2023-04-02T18:18:59.492Z,2.10
2023-04-02T18:19:59.520Z,1.70
2023-04-02T18:20:59.525Z,1.60
2023-04-02T18:21:59.485Z,1.70
2023-04-02T18:22:59.500Z,1.80
2023-04-02T18:23:59.453Z,2.00
2023-04-02T18:24:59.517Z,1.80
2023-04-02T18:25:59.445Z,1.90
2023-04-02T18:26:59.446Z,2.00
2023-04-02T18:27:59.460Z,2.90
2023-04-02T18:28:59.455Z,5.30
2023-04-02T18:29:59.444Z,3.70
2023-04-02T18:30:59.448Z,4.50
2023-04-02T18:31:59.452Z,5.80
2023-04-02T18:32:59.519Z,4.60
2023-04-02T18:33:59.443Z,3.10
2023-04-02T18:34:59.428Z,2.80
2023-04-02T18:35:59.456Z,4.50
2023-04-02T18:36:59.395Z,6.90
2023-04-02T18:37:59.408Z,3.70
2023-04-02T18:38:59.378Z,2.70
2023-04-02T18:39:59.371Z,2.40
2023-04-02T18:40:59.367Z,2.60
2023-04-02T18:41:59.377Z,6.00
2023-04-02T18:42:59.333Z,20.20
2023-04-02T18:43:59.322Z,19.00
2023-04-02T18:44:59.357Z,28.20
2023-04-02T18:45:59.367Z,29.90
2023-04-02T18:46:59.325Z,12.60
2023-04-02T18:47:59.342Z,26.30
2023-04-02T18:48:59.325Z,21.40
2023-04-02T18:49:59.316Z,15.90
2023-04-02T18:50:59.303Z,16.60
2023-04-02T18:51:59.281Z,8.20
2023-04-02T18:52:59.300Z,27.20
2023-04-02T18:53:59.262Z,15.90
2023-04-02T18:54:59.276Z,11.90
2023-04-02T18:55:59.258Z,10.40
2023-04-02T18:56:59.289Z,10.50
2023-04-02T18:57:59.348Z,2.70
2023-04-02T18:59:00.241Z,3.70
2023-04-02T18:59:59.226Z,7.30
2023-04-02T19:01:00.149Z,8.00
2023-04-02T19:01:59.195Z,14.60
2023-04-02T19:02:59.461Z,9.70
2023-04-02T19:03:59.264Z,4.80
2023-04-02T19:04:59.183Z,6.10
2023-04-02T19:05:59.198Z,6.00
2023-04-02T19:06:59.242Z,7.00
2023-04-02T19:07:59.172Z,4.30
2023-04-02T19:08:59.157Z,3.50
2023-04-02T19:09:59.143Z,3.30
2023-04-02T19:10:59.140Z,2.70
2023-04-02T19:11:59.143Z,2.10
2023-04-02T19:12:59.124Z,2.50
2023-04-02T19:13:59.121Z,2.30
2023-04-02T19:15:00.149Z,1.70
2023-04-02T19:16:00.097Z,2.00
2023-04-02T19:17:00.154Z,2.00
2023-04-02T19:17:59.189Z,2.00
2023-04-02T19:18:59.095Z,1.80
2023-04-02T19:19:59.076Z,1.80
2023-04-02T19:20:59.074Z,1.70
2023-04-02T19:21:59.874Z,2.80
2023-04-02T19:22:59.088Z,2.10
2023-04-02T19:23:59.066Z,1.80
2023-04-02T19:24:59.085Z,1.80
2023-04-02T19:25:59.107Z,2.00
2023-04-02T19:26:59.035Z,2.00
2023-04-02T19:27:59.021Z,1.90
2023-04-02T19:28:59.067Z,1.70
2023-04-02T19:29:59.179Z,1.80
2023-04-02T19:30:59.024Z,1.60
2023-04-02T19:32:00.033Z,1.80
2023-04-02T19:32:59.052Z,1.80
2023-04-02T19:33:59.177Z,1.70
2023-04-02T19:34:58.995Z,2.00
2023-04-02T19:35:59.034Z,2.20
2023-04-02T19:36:59.024Z,1.90
2023-04-02T19:37:58.974Z,1.90
2023-04-02T19:38:58.933Z,1.80
2023-04-02T19:39:58.973Z,1.80
2023-04-02T19:40:59.017Z,4.90
2023-04-02T19:41:58.992Z,2.00
2023-04-02T19:42:58.914Z,1.90
2023-04-02T19:43:58.920Z,1.70
2023-04-02T19:44:58.897Z,2.00
2023-04-02T19:45:58.908Z,1.90
2023-04-02T19:46:59.074Z,1.90
2023-04-02T19:47:58.977Z,1.90
2023-04-02T19:48:58.895Z,16.20
2023-04-02T19:49:58.890Z,9.20
2023-04-02T19:50:58.867Z,4.10
2023-04-02T19:51:58.851Z,3.60
2023-04-02T19:52:58.829Z,4.70
2023-04-02T19:53:58.856Z,3.10
2023-04-02T19:54:58.880Z,2.30
2023-04-02T19:55:58.900Z,2.20
2023-04-02T19:56:58.941Z,1.90
2023-04-02T19:58:12.583Z,1.90
2023-04-02T19:59:07.782Z,4.20
2023-04-02T20:00:00.801Z,7.80
2023-04-02T20:00:58.857Z,3.50
2023-04-02T20:01:58.806Z,3.20
2023-04-02T20:02:58.852Z,5.60
2023-04-02T20:03:58.774Z,4.80
2023-04-02T20:04:58.851Z,6.80
2023-04-02T20:05:58.770Z,4.40
2023-04-02T20:06:58.753Z,2.20
2023-04-02T20:07:58.762Z,2.20
2023-04-02T20:08:58.719Z,2.30
2023-04-02T20:09:58.714Z,2.20
2023-04-02T20:10:58.720Z,2.80
2023-04-02T20:11:58.707Z,3.50
2023-04-02T20:12:58.706Z,3.20
2023-04-02T20:13:58.680Z,3.10
2023-04-02T20:14:58.668Z,3.30
2023-04-02T20:15:58.692Z,2.40
2023-04-02T20:16:58.737Z,2.40
2023-04-02T20:17:58.685Z,3.10
2023-04-02T20:18:58.654Z,2.40
2023-04-02T20:19:58.651Z,2.40
2023-04-02T20:20:58.694Z,1.80
2023-04-02T20:21:58.624Z,1.80
2023-04-02T20:22:59.632Z,1.90
2023-04-02T20:23:58.622Z,1.70
2023-04-02T20:24:58.704Z,2.00
2023-04-02T20:25:58.615Z,2.20
2023-04-02T20:26:58.599Z,1.90
2023-04-02T20:27:58.600Z,2.30
2023-04-02T20:28:58.596Z,2.20
2023-04-02T20:29:58.591Z,2.10
2023-04-02T20:30:58.655Z,2.00
2023-04-02T20:32:00.348Z,1.70
2023-04-02T20:32:58.744Z,2.20
2023-04-02T20:33:58.762Z,2.00
2023-04-02T20:34:58.563Z,2.00
2023-04-02T20:35:58.567Z,1.80
2023-04-02T20:36:58.562Z,1.80
2023-04-02T20:37:58.545Z,2.20
2023-04-02T20:38:58.511Z,2.00
2023-04-02T20:39:58.525Z,1.70
2023-04-02T20:40:59.532Z,1.60
2023-04-02T20:41:58.494Z,1.60
2023-04-02T20:42:58.499Z,1.80
2023-04-02T20:43:58.493Z,1.70
2023-04-02T20:44:58.532Z,1.70
2023-04-02T20:45:58.552Z,1.80
2023-04-02T20:46:58.476Z,1.90
2023-04-02T20:47:58.513Z,1.60
2023-04-02T20:48:58.461Z,1.60
2023-04-02T20:49:58.445Z,1.70
2023-04-02T20:50:58.628Z,1.70
2023-04-02T20:51:58.428Z,1.70
2023-04-02T20:52:58.439Z,1.70
2023-04-02T20:53:58.418Z,1.90
2023-04-02T20:54:58.430Z,1.70
2023-04-02T20:55:58.406Z,1.70
2023-04-02T20:56:58.444Z,1.50
2023-04-02T20:57:58.415Z,1.50
2023-04-02T20:58:58.369Z,1.40
2023-04-02T20:59:58.394Z,1.80
2023-04-02T21:00:58.399Z,1.50
2023-04-02T21:01:58.413Z,1.60
2023-04-02T21:02:58.406Z,1.40
2023-04-02T21:03:58.359Z,1.20
2023-04-02T21:04:58.395Z,1.60
2023-04-02T21:05:58.355Z,1.40
2023-04-02T21:06:58.327Z,1.40
2023-04-02T21:07:58.335Z,1.30
2023-04-02T21:08:58.331Z,1.30
2023-04-02T21:09:58.406Z,1.50
2023-04-02T21:10:58.676Z,1.40
2023-04-02T21:11:58.297Z,1.30
2023-04-02T21:12:58.301Z,1.30
2023-04-02T21:13:58.285Z,1.50
2023-04-02T21:15:00.223Z,1.30
2023-04-02T21:15:58.308Z,1.50
2023-04-02T21:16:58.299Z,1.40
2023-04-02T21:17:58.344Z,1.40
2023-04-02T21:18:58.261Z,1.30
2023-04-02T21:19:58.262Z,1.50
2023-04-02T21:20:58.240Z,1.60
2023-04-02T21:21:58.268Z,1.20
2023-04-02T21:22:58.223Z,1.30
2023-04-02T21:23:58.212Z,1.30
2023-04-02T21:24:58.219Z,1.20
2023-04-02T21:25:58.226Z,1.20
2023-04-02T21:26:58.185Z,1.40
2023-04-02T21:27:58.182Z,1.50
2023-04-02T21:28:58.210Z,1.60
2023-04-02T21:29:58.195Z,1.40
2023-04-02T21:30:58.172Z,1.20
2023-04-02T21:31:59.798Z,1.30
2023-04-02T21:32:58.184Z,1.40
2023-04-02T21:33:58.139Z,1.40
2023-04-02T21:34:58.145Z,1.50
2023-04-02T21:35:58.188Z,1.70
2023-04-02T21:36:58.134Z,1.30
2023-04-02T21:37:58.153Z,1.50
2023-04-02T21:38:58.131Z,1.30
2023-04-02T21:39:58.120Z,1.30
2023-04-02T21:40:58.130Z,1.30
2023-04-02T21:41:58.120Z,1.20
2023-04-02T21:42:58.078Z,1.50
2023-04-02T21:43:58.071Z,1.30
2023-04-02T21:44:58.100Z,1.40
